createdAt,value
2023-05-16T00:00:35.600Z,12.42
2023-05-16T00:01:15.171Z,12.41
2023-05-16T00:01:47.666Z,12.44
2023-05-16T00:02:20.103Z,12.46
2023-05-16T00:02:59.686Z,12.46
2023-05-16T00:03:32.183Z,12.48
2023-05-16T00:04:11.700Z,12.49
2023-05-16T00:04:44.084Z,12.51
2023-05-16T00:05:23.580Z,12.52
2023-05-16T00:05:56.146Z,12.51
2023-05-16T00:06:28.522Z,12.52
2023-05-16T00:07:08.033Z,12.49
2023-05-16T00:07:47.600Z,12.52
2023-05-16T00:08:27.147Z,12.52
2023-05-16T00:09:07.177Z,12.52
2023-05-16T00:09:46.644Z,12.52
2023-05-16T00:10:19.096Z,12.54
2023-05-16T00:10:58.573Z,12.51
2023-05-16T00:11:38.096Z,12.51
2023-05-16T00:12:10.562Z,12.48
2023-05-16T00:12:42.999Z,12.46
2023-05-16T00:13:15.531Z,12.44
2023-05-16T00:13:48.052Z,12.42
2023-05-16T00:14:20.519Z,12.41
2023-05-16T00:14:52.984Z,12.39
2023-05-16T00:15:25.451Z,12.38
2023-05-16T00:15:57.938Z,12.38
2023-05-16T00:16:30.493Z,12.37
2023-05-16T00:17:03.007Z,12.38
2023-05-16T00:17:35.396Z,12.38
2023-05-16T00:18:07.943Z,12.39
2023-05-16T00:18:40.275Z,12.38
2023-05-16T00:19:12.793Z,12.38
2023-05-16T00:19:45.164Z,12.38
2023-05-16T00:20:17.665Z,12.38
2023-05-16T00:20:50.112Z,12.39
2023-05-16T00:21:23.758Z,12.38
2023-05-16T00:21:55.110Z,12.37
2023-05-16T00:22:27.598Z,12.37
2023-05-16T00:23:00.167Z,12.38
2023-05-16T00:23:32.793Z,12.38
2023-05-16T00:24:05.238Z,12.34
2023-05-16T00:24:37.699Z,12.38
2023-05-16T00:25:10.180Z,12.31
2023-05-16T00:27:26.295Z,12.21
2023-05-16T00:27:58.782Z,12.20
2023-05-16T00:28:31.272Z,12.13
2023-05-16T00:29:03.717Z,12.12
2023-05-16T00:29:36.170Z,12.08
2023-05-16T00:30:08.660Z,12.08
2023-05-16T00:30:41.187Z,12.02
2023-05-16T00:31:13.722Z,11.97
2023-05-16T00:31:46.230Z,11.96
2023-05-16T00:32:18.845Z,11.93
2023-05-16T00:32:51.277Z,11.87
2023-05-16T00:33:23.727Z,11.85
2023-05-16T00:33:56.221Z,11.82
2023-05-16T00:34:28.746Z,11.78
2023-05-16T00:35:01.227Z,11.77
2023-05-16T00:35:33.727Z,11.72
2023-05-16T00:36:06.263Z,11.71
2023-05-16T00:36:38.768Z,11.70
2023-05-16T00:37:11.280Z,11.67
2023-05-16T00:37:43.764Z,11.68
2023-05-16T00:38:16.288Z,11.67
2023-05-16T00:38:55.848Z,11.67
2023-05-16T00:39:28.392Z,11.65
2023-05-16T00:40:00.887Z,11.67
2023-05-16T00:40:33.343Z,11.67
2023-05-16T00:41:05.868Z,11.64
2023-05-16T00:41:38.309Z,11.61
2023-05-16T00:42:10.810Z,11.64
2023-05-16T00:42:43.288Z,11.62
2023-05-16T00:43:15.755Z,11.64
2023-05-16T00:43:48.213Z,11.65
2023-05-16T00:44:20.661Z,11.64
2023-05-16T00:44:53.135Z,11.62
2023-05-16T00:45:25.587Z,11.59
2023-05-16T00:45:58.238Z,11.61
2023-05-16T00:46:30.656Z,11.59
2023-05-16T00:47:03.074Z,11.61
2023-05-16T00:47:35.558Z,11.61
2023-05-16T00:48:08.050Z,11.54
2023-05-16T00:48:40.534Z,11.52
2023-05-16T00:49:13.035Z,11.49
2023-05-16T00:49:45.509Z,11.46
2023-05-16T00:50:18.016Z,11.39
2023-05-16T00:50:50.527Z,11.39
2023-05-16T00:51:23.030Z,11.36
2023-05-16T00:51:55.457Z,11.34
2023-05-16T00:52:27.943Z,11.31
2023-05-16T00:53:00.442Z,11.31
2023-05-16T00:53:32.991Z,11.29
2023-05-16T00:54:05.467Z,11.29
2023-05-16T00:54:37.965Z,11.28
2023-05-16T00:55:10.473Z,11.28
2023-05-16T00:55:43.001Z,11.24
2023-05-16T00:56:15.467Z,11.21
2023-05-16T00:56:47.957Z,11.16
2023-05-16T00:57:20.399Z,11.11
2023-05-16T00:57:52.910Z,11.03
2023-05-16T00:58:25.425Z,11.03
2023-05-16T00:58:57.953Z,10.95
2023-05-16T00:59:30.457Z,10.88
2023-05-16T01:00:02.936Z,10.84
2023-05-16T01:00:35.390Z,10.83
2023-05-16T01:01:07.981Z,10.81
2023-05-16T01:01:40.368Z,10.77
2023-05-16T01:02:12.858Z,10.73
2023-05-16T01:02:45.322Z,10.70
2023-05-16T01:03:17.803Z,10.65
2023-05-16T01:03:50.377Z,10.65
2023-05-16T01:04:22.753Z,10.62
2023-05-16T01:04:55.272Z,10.59
2023-05-16T01:05:28.137Z,10.59
2023-05-16T01:06:00.234Z,10.58
2023-05-16T01:06:32.822Z,10.55
2023-05-16T01:07:05.340Z,10.53
2023-05-16T01:07:37.865Z,10.53
2023-05-16T01:08:10.365Z,10.53
2023-05-16T01:08:42.900Z,10.52
2023-05-16T01:09:15.388Z,10.47
2023-05-16T01:09:47.891Z,10.44
2023-05-16T01:10:20.399Z,10.42
2023-05-16T01:10:52.961Z,10.40
2023-05-16T01:11:25.459Z,10.42
2023-05-16T01:11:57.953Z,10.39
2023-05-16T01:12:30.449Z,10.40
2023-05-16T01:13:02.957Z,10.39
2023-05-16T01:13:35.399Z,10.36
2023-05-16T01:14:07.919Z,10.33
2023-05-16T01:14:40.421Z,10.32
2023-05-16T01:15:12.935Z,10.32
2023-05-16T01:15:45.412Z,10.32
2023-05-16T01:16:17.916Z,10.30
2023-05-16T01:16:50.363Z,10.26
2023-05-16T01:17:22.895Z,10.24
2023-05-16T01:17:55.336Z,10.22
2023-05-16T01:18:27.716Z,10.21
2023-05-16T01:19:00.272Z,10.21
2023-05-16T01:19:32.745Z,10.18
2023-05-16T01:20:05.213Z,10.17
2023-05-16T01:20:37.586Z,10.14
2023-05-16T01:21:10.074Z,10.10
2023-05-16T01:21:42.565Z,10.10
2023-05-16T01:22:15.074Z,10.09
2023-05-16T01:22:47.531Z,10.07
2023-05-16T01:23:19.998Z,10.07
2023-05-16T01:23:52.473Z,10.07
2023-05-16T01:24:24.983Z,10.10
2023-05-16T01:24:57.476Z,10.10
2023-05-16T01:25:29.940Z,10.12
2023-05-16T01:26:02.437Z,10.09
2023-05-16T01:26:34.950Z,10.04
2023-05-16T01:27:07.464Z,10.01
2023-05-16T01:27:39.963Z,9.99
2023-05-16T01:28:12.488Z,9.97
2023-05-16T01:28:44.984Z,9.99
2023-05-16T01:29:17.504Z,9.96
2023-05-16T01:29:50.001Z,9.96
2023-05-16T01:30:22.504Z,9.96
2023-05-16T01:30:55.004Z,9.94
2023-05-16T01:31:27.536Z,9.93
2023-05-16T01:32:00.036Z,9.94
2023-05-16T01:32:32.540Z,9.91
2023-05-16T01:33:05.101Z,9.93
2023-05-16T01:33:37.590Z,9.89
2023-05-16T01:34:10.071Z,9.89
2023-05-16T01:34:42.549Z,9.88
2023-05-16T01:35:15.024Z,9.88
2023-05-16T01:35:47.583Z,9.82
2023-05-16T01:36:20.055Z,9.85
2023-05-16T01:36:52.522Z,9.83
2023-05-16T01:37:24.959Z,9.82
2023-05-16T01:37:57.508Z,9.82
2023-05-16T01:38:30.014Z,9.82
2023-05-16T01:39:02.545Z,9.83
2023-05-16T01:39:35.024Z,9.85
2023-05-16T01:40:07.524Z,9.88
2023-05-16T01:40:39.988Z,9.89
2023-05-16T01:41:12.564Z,9.89
2023-05-16T01:41:45.066Z,9.91
2023-05-16T01:42:17.546Z,9.89
2023-05-16T01:42:50.051Z,9.91
2023-05-16T01:43:22.547Z,9.88
2023-05-16T01:43:55.054Z,9.91
2023-05-16T01:44:27.520Z,9.89
2023-05-16T01:45:00.068Z,9.91
2023-05-16T01:45:32.510Z,9.89
2023-05-16T01:46:04.956Z,9.86
2023-05-16T01:46:37.474Z,9.86
2023-05-16T01:47:09.911Z,9.86
2023-05-16T01:47:42.477Z,9.88
2023-05-16T01:48:14.921Z,9.85
2023-05-16T01:48:47.390Z,9.86
2023-05-16T01:49:19.892Z,9.86
2023-05-16T01:49:52.406Z,9.88
2023-05-16T01:50:24.905Z,9.86
2023-05-16T01:50:57.408Z,9.85
2023-05-16T01:51:29.882Z,9.83
2023-05-16T01:52:02.376Z,9.85
2023-05-16T01:52:34.895Z,9.83
2023-05-16T01:53:07.460Z,9.81
2023-05-16T01:53:39.983Z,9.82
2023-05-16T01:54:12.427Z,9.79
2023-05-16T01:54:44.930Z,9.81
2023-05-16T01:55:17.400Z,9.82
2023-05-16T01:55:49.920Z,9.82
2023-05-16T01:56:22.435Z,9.82
2023-05-16T01:56:54.936Z,9.82
2023-05-16T01:57:27.440Z,9.81
2023-05-16T01:57:59.867Z,9.79
2023-05-16T01:58:32.388Z,9.81
2023-05-16T01:59:04.907Z,9.81
2023-05-16T01:59:37.419Z,9.79
2023-05-16T02:00:09.874Z,9.81
2023-05-16T02:00:42.504Z,9.82
2023-05-16T02:01:14.858Z,9.81
2023-05-16T02:01:47.335Z,9.78
2023-05-16T02:02:19.940Z,9.76
2023-05-16T02:02:52.350Z,9.75
2023-05-16T02:03:24.897Z,9.75
2023-05-16T02:03:57.366Z,9.71
2023-05-16T02:04:29.820Z,9.73
2023-05-16T02:05:02.317Z,9.71
2023-05-16T02:05:34.840Z,9.73
2023-05-16T02:06:07.350Z,9.73
2023-05-16T02:06:39.869Z,9.75
2023-05-16T02:07:12.349Z,9.73
2023-05-16T02:07:44.832Z,9.73
2023-05-16T02:08:17.395Z,9.76
2023-05-16T02:08:49.912Z,9.78
2023-05-16T02:09:22.446Z,9.79
2023-05-16T02:09:54.933Z,9.78
2023-05-16T02:10:27.451Z,9.75
2023-05-16T02:11:00.083Z,9.73
2023-05-16T02:11:32.571Z,9.70
2023-05-16T02:12:05.089Z,9.71
2023-05-16T02:12:37.553Z,9.68
2023-05-16T02:13:10.045Z,9.68
2023-05-16T02:13:42.489Z,9.68
2023-05-16T02:14:14.965Z,9.68
2023-05-16T02:14:47.505Z,9.67
2023-05-16T02:15:20.033Z,9.68
2023-05-16T02:15:52.540Z,9.68
2023-05-16T02:16:25.056Z,9.70
2023-05-16T02:16:57.565Z,9.70
2023-05-16T02:17:30.055Z,9.71
2023-05-16T02:18:02.634Z,9.68
2023-05-16T02:18:35.123Z,9.70
2023-05-16T02:19:07.637Z,9.66
2023-05-16T02:19:40.022Z,9.67
2023-05-16T02:20:12.521Z,9.66
2023-05-16T02:20:45.025Z,9.66
2023-05-16T02:21:17.500Z,9.63
2023-05-16T02:21:49.958Z,9.61
2023-05-16T02:22:22.421Z,9.58
2023-05-16T02:22:54.998Z,9.58
2023-05-16T02:23:27.485Z,9.57
2023-05-16T02:23:59.967Z,9.58
2023-05-16T02:24:32.475Z,9.60
2023-05-16T02:25:04.965Z,9.60
2023-05-16T02:25:37.426Z,9.60
2023-05-16T02:26:09.889Z,9.57
2023-05-16T02:26:42.403Z,9.57
2023-05-16T02:27:14.901Z,9.56
2023-05-16T02:27:47.412Z,9.53
2023-05-16T02:28:19.934Z,9.56
2023-05-16T02:28:52.385Z,9.53
2023-05-16T02:29:24.889Z,9.56
2023-05-16T02:29:57.402Z,9.56
2023-05-16T02:30:29.928Z,9.57
2023-05-16T02:31:02.499Z,9.57
2023-05-16T02:31:35.039Z,9.58
2023-05-16T02:32:07.467Z,9.58
2023-05-16T02:32:40.071Z,9.58
2023-05-16T02:33:12.496Z,9.58
2023-05-16T02:33:44.911Z,9.56
2023-05-16T02:34:17.397Z,9.52
2023-05-16T02:34:49.866Z,9.52
2023-05-16T02:35:22.409Z,9.49
2023-05-16T02:35:54.893Z,9.50
2023-05-16T02:36:27.393Z,9.50
2023-05-16T02:36:59.885Z,9.49
2023-05-16T02:37:32.385Z,9.50
2023-05-16T02:38:04.837Z,9.52
2023-05-16T02:38:37.310Z,9.52
2023-05-16T02:39:09.834Z,9.53
2023-05-16T02:39:42.308Z,9.52
2023-05-16T02:40:14.822Z,9.50
2023-05-16T02:40:47.326Z,9.49
2023-05-16T02:41:19.826Z,9.50
2023-05-16T02:41:52.283Z,9.49
2023-05-16T02:42:24.813Z,9.52
2023-05-16T02:42:57.262Z,9.50
2023-05-16T02:43:29.785Z,9.50
2023-05-16T02:44:02.284Z,9.50
2023-05-16T02:44:34.776Z,9.49
2023-05-16T02:45:07.312Z,9.48
2023-05-16T02:45:39.772Z,9.50
2023-05-16T02:46:12.265Z,9.49
2023-05-16T02:46:44.779Z,9.49
2023-05-16T02:47:17.223Z,9.49
2023-05-16T02:47:49.705Z,9.49
2023-05-16T02:48:22.208Z,9.50
2023-05-16T02:48:54.653Z,9.49
2023-05-16T02:49:27.112Z,9.48
2023-05-16T02:49:59.570Z,9.48
2023-05-16T02:50:32.102Z,9.48
2023-05-16T02:51:04.610Z,9.46
2023-05-16T02:51:37.106Z,9.45
2023-05-16T02:52:09.627Z,9.45
2023-05-16T02:52:42.158Z,9.42
2023-05-16T02:53:14.639Z,9.39
2023-05-16T02:53:47.147Z,9.39
2023-05-16T02:54:19.627Z,9.39
2023-05-16T02:55:04.774Z,9.38
2023-05-16T02:55:24.670Z,9.35
2023-05-16T02:55:57.120Z,9.35
2023-05-16T02:56:29.612Z,9.35
2023-05-16T02:57:02.112Z,9.35
2023-05-16T02:57:34.641Z,9.34
2023-05-16T02:58:07.166Z,9.38
2023-05-16T02:58:39.628Z,9.34
2023-05-16T02:59:12.077Z,9.35
2023-05-16T02:59:44.590Z,9.35
2023-05-16T03:00:18.527Z,9.35
2023-05-16T03:00:49.570Z,9.38
2023-05-16T03:01:22.057Z,9.32
2023-05-16T03:01:54.577Z,9.31
2023-05-16T03:02:27.035Z,9.28
2023-05-16T03:02:59.514Z,9.27
2023-05-16T03:03:32.133Z,9.24
2023-05-16T03:04:04.605Z,9.23
2023-05-16T03:04:36.969Z,9.23
2023-05-16T03:05:09.503Z,9.21
2023-05-16T03:05:42.025Z,9.20
2023-05-16T03:06:14.515Z,9.18
2023-05-16T03:06:46.985Z,9.16
2023-05-16T03:07:19.492Z,9.16
2023-05-16T03:07:52.009Z,9.16
2023-05-16T03:08:24.497Z,9.15
2023-05-16T03:08:56.980Z,9.16
2023-05-16T03:09:29.517Z,9.18
2023-05-16T03:10:02.012Z,9.15
2023-05-16T03:10:34.657Z,9.16
2023-05-16T03:11:07.199Z,9.16
2023-05-16T03:11:39.930Z,9.15
2023-05-16T03:12:12.398Z,9.16
2023-05-16T03:12:44.920Z,9.15
2023-05-16T03:13:17.412Z,9.13
2023-05-16T03:13:49.942Z,9.12
2023-05-16T03:14:22.438Z,9.12
2023-05-16T03:14:54.964Z,9.12
2023-05-16T03:15:27.683Z,9.12
2023-05-16T03:15:59.975Z,9.12
2023-05-16T03:16:32.466Z,9.09
2023-05-16T03:17:04.897Z,9.09
2023-05-16T03:17:37.401Z,9.05
2023-05-16T03:18:09.936Z,9.05
2023-05-16T03:18:42.401Z,9.05
2023-05-16T03:19:14.871Z,9.06
2023-05-16T03:19:47.341Z,9.05
2023-05-16T03:20:19.865Z,9.04
2023-05-16T03:20:52.309Z,9.01
2023-05-16T03:21:24.816Z,9.01
2023-05-16T03:21:57.324Z,8.99
2023-05-16T03:22:29.841Z,8.96
2023-05-16T03:23:02.379Z,8.94
2023-05-16T03:23:34.875Z,8.96
2023-05-16T03:24:07.370Z,8.94
2023-05-16T03:24:39.823Z,8.96
2023-05-16T03:25:12.309Z,8.96
2023-05-16T03:25:44.757Z,8.96
2023-05-16T03:26:17.268Z,8.93
2023-05-16T03:26:49.728Z,8.93
2023-05-16T03:27:22.236Z,8.90
2023-05-16T03:27:54.714Z,8.88
2023-05-16T03:28:27.184Z,8.88
2023-05-16T03:28:59.663Z,8.88
2023-05-16T03:29:32.177Z,8.90
2023-05-16T03:30:04.713Z,8.87
2023-05-16T03:30:37.213Z,8.87
2023-05-16T03:31:09.794Z,8.87
2023-05-16T03:31:42.312Z,8.87
2023-05-16T03:32:14.696Z,8.86
2023-05-16T03:32:47.186Z,8.84
2023-05-16T03:33:19.628Z,8.81
2023-05-16T03:33:52.112Z,8.79
2023-05-16T03:34:24.577Z,8.79
2023-05-16T03:34:57.131Z,8.79
2023-05-16T03:35:29.845Z,8.78
2023-05-16T03:36:02.148Z,8.75
2023-05-16T03:36:34.593Z,8.73
2023-05-16T03:37:07.110Z,8.73
2023-05-16T03:37:39.619Z,8.73
2023-05-16T03:38:12.102Z,8.72
2023-05-16T03:38:44.658Z,8.72
2023-05-16T03:39:17.151Z,8.71
2023-05-16T03:39:49.660Z,8.69
2023-05-16T03:40:22.183Z,8.69
2023-05-16T03:40:54.618Z,8.66
2023-05-16T03:41:27.091Z,8.62
2023-05-16T03:41:59.544Z,8.60
2023-05-16T03:42:32.013Z,8.57
2023-05-16T03:43:04.470Z,8.57
2023-05-16T03:43:37.044Z,8.54
2023-05-16T03:44:09.574Z,8.55
2023-05-16T03:44:42.079Z,8.53
2023-05-16T03:45:14.585Z,8.53
2023-05-16T03:45:47.136Z,8.48
2023-05-16T03:46:19.609Z,8.48
2023-05-16T03:46:52.072Z,8.44
2023-05-16T03:47:24.591Z,8.42
2023-05-16T03:47:57.149Z,8.42
2023-05-16T03:48:29.645Z,8.42
2023-05-16T03:49:02.160Z,8.37
2023-05-16T03:49:34.648Z,8.35
2023-05-16T03:50:07.157Z,8.35
2023-05-16T03:50:41.045Z,8.33
2023-05-16T03:51:12.128Z,8.32
2023-05-16T03:51:44.635Z,8.32
2023-05-16T03:52:17.130Z,8.29
2023-05-16T03:52:49.645Z,8.29
2023-05-16T03:53:22.152Z,8.28
2023-05-16T03:53:54.701Z,8.26
2023-05-16T03:54:27.242Z,8.22
2023-05-16T03:54:59.757Z,8.22
2023-05-16T03:55:32.305Z,8.21
2023-05-16T03:56:04.799Z,8.20
2023-05-16T03:56:37.313Z,8.18
2023-05-16T03:57:09.857Z,8.20
2023-05-16T03:57:42.385Z,8.18
2023-05-16T03:58:14.881Z,8.15
2023-05-16T03:58:47.346Z,8.14
2023-05-16T03:59:19.833Z,8.14
2023-05-16T03:59:52.365Z,8.12
2023-05-16T04:00:24.852Z,8.14
2023-05-16T04:00:57.340Z,8.12
2023-05-16T04:01:29.841Z,8.12
2023-05-16T04:02:02.372Z,8.11
2023-05-16T04:02:34.903Z,8.10
2023-05-16T04:03:07.388Z,8.08
2023-05-16T04:03:39.784Z,8.10
2023-05-16T04:04:12.261Z,8.08
2023-05-16T04:04:44.734Z,8.08
2023-05-16T04:05:17.285Z,8.03
2023-05-16T04:05:49.780Z,8.04
2023-05-16T04:06:22.338Z,8.04
2023-05-16T04:06:54.744Z,8.03
2023-05-16T04:07:27.329Z,8.02
2023-05-16T04:07:59.816Z,8.00
2023-05-16T04:08:32.274Z,8.00
2023-05-16T04:09:04.783Z,8.02
2023-05-16T04:09:37.260Z,8.00
2023-05-16T04:10:09.734Z,7.99
2023-05-16T04:10:42.273Z,7.97
2023-05-16T04:11:14.726Z,7.97
2023-05-16T04:11:47.229Z,7.96
2023-05-16T04:12:19.757Z,7.94
2023-05-16T04:12:52.262Z,7.96
2023-05-16T04:13:24.788Z,7.99
2023-05-16T04:13:57.277Z,8.00
2023-05-16T04:14:29.730Z,8.00
2023-05-16T04:15:02.177Z,7.97
2023-05-16T04:15:34.662Z,7.99
2023-05-16T04:16:07.130Z,7.99
2023-05-16T04:16:39.624Z,7.99
2023-05-16T04:17:12.143Z,7.97
2023-05-16T04:17:44.556Z,7.96
2023-05-16T04:18:17.035Z,7.94
2023-05-16T04:18:49.520Z,7.93
2023-05-16T04:19:22.022Z,7.94
2023-05-16T04:19:54.421Z,7.96
2023-05-16T04:20:26.909Z,7.90
2023-05-16T04:20:59.397Z,7.93
2023-05-16T04:21:31.900Z,7.93
2023-05-16T04:22:04.399Z,7.93
2023-05-16T04:22:36.907Z,7.93
2023-05-16T04:23:09.421Z,7.93
2023-05-16T04:23:41.931Z,7.94
2023-05-16T04:24:14.441Z,7.92
2023-05-16T04:24:46.925Z,7.92
2023-05-16T04:25:19.399Z,7.93
2023-05-16T04:25:51.897Z,7.93
2023-05-16T04:26:24.415Z,7.92
2023-05-16T04:26:56.949Z,7.92
2023-05-16T04:27:29.465Z,7.90
2023-05-16T04:28:02.003Z,7.92
2023-05-16T04:28:34.549Z,7.90
2023-05-16T04:29:07.007Z,7.90
2023-05-16T04:29:39.465Z,7.92
2023-05-16T04:30:11.941Z,7.90
2023-05-16T04:30:44.454Z,7.92
2023-05-16T04:31:16.984Z,7.92
2023-05-16T04:31:49.541Z,7.92
2023-05-16T04:32:21.972Z,7.93
2023-05-16T04:32:54.530Z,7.93
2023-05-16T04:33:26.961Z,7.92
2023-05-16T04:33:59.473Z,7.93
2023-05-16T04:34:31.914Z,7.93
2023-05-16T04:35:04.469Z,7.94
2023-05-16T04:35:36.990Z,7.94
2023-05-16T04:36:09.501Z,7.94
2023-05-16T04:36:41.964Z,7.94
2023-05-16T04:37:14.439Z,7.96
2023-05-16T04:37:46.922Z,7.96
2023-05-16T04:38:19.380Z,7.96
2023-05-16T04:38:51.845Z,7.96
2023-05-16T04:39:24.354Z,7.96
2023-05-16T04:39:56.848Z,7.96
2023-05-16T04:40:29.329Z,7.97
2023-05-16T04:41:01.793Z,7.96
2023-05-16T04:41:34.247Z,7.96
2023-05-16T04:42:06.747Z,7.97
2023-05-16T04:42:39.290Z,7.99
2023-05-16T04:43:11.789Z,7.97
2023-05-16T04:43:44.345Z,8.02
2023-05-16T04:44:16.841Z,8.03
2023-05-16T04:44:49.394Z,8.03
2023-05-16T04:45:21.869Z,8.03
2023-05-16T04:45:54.424Z,8.07
2023-05-16T04:46:26.883Z,8.04
2023-05-16T04:46:59.370Z,8.03
2023-05-16T04:47:31.874Z,8.07
2023-05-16T04:48:04.375Z,8.04
2023-05-16T04:48:36.785Z,8.07
2023-05-16T04:49:09.281Z,8.08
2023-05-16T04:49:41.836Z,8.08
2023-05-16T04:50:14.359Z,8.07
2023-05-16T04:50:46.867Z,8.07
2023-05-16T04:51:19.342Z,8.11
2023-05-16T04:51:51.837Z,8.12
2023-05-16T04:52:24.380Z,8.14
2023-05-16T04:52:56.927Z,8.14
2023-05-16T04:53:30.051Z,8.12
2023-05-16T04:54:02.541Z,8.15
2023-05-16T04:54:35.049Z,8.15
2023-05-16T04:55:07.506Z,8.18
2023-05-16T04:55:40.045Z,8.20
2023-05-16T04:56:12.587Z,8.20
2023-05-16T04:56:45.115Z,8.25
2023-05-16T04:57:17.631Z,8.26
2023-05-16T04:57:50.151Z,8.28
2023-05-16T04:58:22.678Z,8.28
2023-05-16T04:58:55.227Z,8.28
2023-05-16T04:59:27.714Z,8.26
2023-05-16T05:00:00.208Z,8.30
2023-05-16T05:00:32.665Z,8.29
2023-05-16T05:01:05.162Z,8.32
2023-05-16T05:01:37.689Z,8.32
2023-05-16T05:02:10.214Z,8.33
2023-05-16T05:02:42.640Z,8.33
2023-05-16T05:03:15.287Z,8.33
2023-05-16T05:03:48.395Z,8.36
2023-05-16T05:04:20.831Z,8.35
2023-05-16T05:04:53.376Z,8.36
2023-05-16T05:05:26.082Z,8.39
2023-05-16T05:05:58.439Z,8.37
2023-05-16T05:06:30.945Z,8.40
2023-05-16T05:07:03.420Z,8.42
2023-05-16T05:07:35.936Z,8.44
2023-05-16T05:08:08.464Z,8.42
2023-05-16T05:08:40.970Z,8.48
2023-05-16T05:09:13.481Z,8.48
2023-05-16T05:09:45.981Z,8.48
2023-05-16T05:10:18.462Z,8.48
2023-05-16T05:10:50.968Z,8.50
2023-05-16T05:11:23.494Z,8.50
2023-05-16T05:11:56.019Z,8.50
2023-05-16T05:12:28.511Z,8.51
2023-05-16T05:13:01.031Z,8.53
2023-05-16T05:13:33.519Z,8.54
2023-05-16T05:14:06.027Z,8.57
2023-05-16T05:14:38.541Z,8.55
2023-05-16T05:15:11.822Z,8.55
2023-05-16T05:15:44.336Z,8.57
2023-05-16T05:16:16.862Z,8.58
2023-05-16T05:16:49.479Z,8.57
2023-05-16T05:17:22.027Z,8.58
2023-05-16T05:17:54.584Z,8.58
2023-05-16T05:18:26.940Z,8.60
2023-05-16T05:18:59.519Z,8.58
2023-05-16T05:19:31.942Z,8.65
2023-05-16T05:20:04.385Z,8.65
2023-05-16T05:20:36.932Z,8.68
2023-05-16T05:21:09.476Z,8.69
2023-05-16T05:21:41.973Z,8.71
2023-05-16T05:22:14.480Z,8.72
2023-05-16T05:22:47.040Z,8.75
2023-05-16T05:23:19.634Z,8.76
2023-05-16T05:23:52.147Z,8.76
2023-05-16T05:24:24.712Z,8.78
2023-05-16T05:24:57.294Z,8.81
2023-05-16T05:25:29.942Z,8.81
2023-05-16T05:26:02.324Z,8.84
2023-05-16T05:26:34.823Z,8.87
2023-05-16T05:27:07.330Z,8.90
2023-05-16T05:27:39.815Z,8.90
2023-05-16T05:28:12.301Z,8.90
2023-05-16T05:28:53.812Z,8.91
2023-05-16T05:29:17.288Z,8.97
2023-05-16T05:29:49.759Z,8.97
2023-05-16T05:30:22.260Z,9.04
2023-05-16T05:30:54.735Z,9.04
2023-05-16T05:31:27.295Z,9.06
2023-05-16T05:31:59.839Z,9.10
2023-05-16T05:32:32.329Z,9.12
2023-05-16T05:33:04.854Z,9.13
2023-05-16T05:33:37.311Z,9.18
2023-05-16T05:34:09.786Z,9.20
2023-05-16T05:34:42.319Z,9.25
2023-05-16T05:35:14.815Z,9.27
2023-05-16T05:35:47.351Z,9.31
2023-05-16T05:36:19.864Z,9.32
2023-05-16T05:36:52.372Z,9.38
2023-05-16T05:37:24.865Z,9.38
2023-05-16T05:37:57.416Z,9.42
2023-05-16T05:38:29.961Z,9.43
2023-05-16T05:39:02.458Z,9.46
2023-05-16T05:39:34.987Z,9.50
2023-05-16T05:40:07.500Z,9.50
2023-05-16T05:40:40.010Z,9.53
2023-05-16T05:41:12.566Z,9.57
2023-05-16T05:41:45.075Z,9.60
2023-05-16T05:42:17.570Z,9.64
2023-05-16T05:42:50.076Z,9.68
2023-05-16T05:43:22.559Z,9.73
2023-05-16T05:43:55.057Z,9.78
2023-05-16T05:44:27.619Z,9.81
2023-05-16T05:45:00.161Z,9.85
2023-05-16T05:45:32.731Z,9.88
2023-05-16T05:46:05.215Z,9.96
2023-05-16T05:46:37.747Z,10.00
2023-05-16T05:47:10.161Z,10.04
2023-05-16T05:47:42.722Z,10.09
2023-05-16T05:48:15.222Z,10.15
2023-05-16T05:48:47.714Z,10.21
2023-05-16T05:49:20.294Z,10.24
2023-05-16T05:49:52.913Z,10.34
2023-05-16T05:50:25.413Z,10.43
2023-05-16T05:50:57.905Z,10.55
2023-05-16T05:51:30.409Z,10.65
2023-05-16T05:52:02.903Z,10.83
2023-05-16T05:52:35.393Z,10.99
2023-05-16T05:53:07.897Z,11.19
2023-05-16T05:53:40.352Z,11.43
2023-05-16T05:54:12.829Z,11.75
2023-05-16T05:54:45.394Z,12.01
2023-05-16T05:55:17.911Z,12.31
2023-05-16T05:55:50.474Z,12.63
2023-05-16T05:56:23.029Z,12.87
2023-05-16T05:56:55.572Z,13.14
2023-05-16T05:57:28.128Z,13.49
2023-05-16T05:58:00.685Z,13.77
2023-05-16T05:58:33.176Z,14.13
2023-05-16T05:59:06.423Z,14.47
2023-05-16T05:59:39.076Z,14.88
2023-05-16T06:00:11.972Z,15.15
2023-05-16T06:00:44.862Z,15.41
2023-05-16T06:01:17.500Z,15.63
2023-05-16T06:01:50.006Z,15.84
2023-05-16T06:02:22.549Z,15.76
2023-05-16T06:02:55.185Z,15.85
2023-05-16T06:03:27.624Z,16.04
2023-05-16T06:04:02.032Z,16.34
2023-05-16T06:04:32.607Z,16.62
2023-05-16T06:05:05.138Z,16.93
2023-05-16T06:05:37.604Z,17.25
2023-05-16T06:06:10.110Z,17.46
2023-05-16T06:06:42.592Z,17.70
2023-05-16T06:07:15.091Z,17.79
2023-05-16T06:07:47.630Z,17.95
2023-05-16T06:08:20.130Z,18.12
2023-05-16T06:08:52.682Z,18.33
2023-05-16T06:09:25.284Z,18.58
2023-05-16T06:09:57.846Z,18.65
2023-05-16T06:10:30.354Z,18.76
2023-05-16T06:11:02.832Z,18.91
2023-05-16T06:11:35.366Z,19.10
2023-05-16T06:12:07.928Z,19.31
2023-05-16T06:12:40.502Z,19.53
2023-05-16T06:13:13.008Z,19.57
2023-05-16T06:13:45.595Z,19.63
2023-05-16T06:14:18.130Z,19.61
2023-05-16T06:14:50.617Z,19.58
2023-05-16T06:15:23.175Z,19.50
2023-05-16T06:15:55.744Z,19.46
2023-05-16T06:16:28.258Z,19.33
2023-05-16T06:17:00.771Z,19.39
2023-05-16T06:17:33.378Z,19.55
2023-05-16T06:18:05.842Z,19.70
2023-05-16T06:18:38.345Z,19.87
2023-05-16T06:19:10.879Z,19.98
2023-05-16T06:19:43.360Z,20.09
2023-05-16T06:20:15.889Z,20.08
2023-05-16T06:20:48.446Z,20.05
2023-05-16T06:21:21.031Z,20.05
2023-05-16T06:21:54.328Z,20.06
2023-05-16T06:22:26.828Z,19.91
2023-05-16T06:22:59.360Z,19.46
2023-05-16T06:23:31.958Z,19.01
2023-05-16T06:24:04.475Z,18.99
2023-05-16T06:24:37.005Z,18.76
2023-05-16T06:25:10.334Z,18.87
2023-05-16T06:25:43.602Z,19.15
2023-05-16T06:26:16.113Z,19.38
2023-05-16T06:26:48.624Z,19.63
2023-05-16T06:27:21.150Z,19.97
2023-05-16T06:27:54.631Z,20.31
2023-05-16T06:28:27.186Z,20.62
2023-05-16T06:28:59.761Z,20.50
2023-05-16T06:29:32.306Z,20.59
2023-05-16T06:30:04.824Z,20.83
2023-05-16T06:30:37.344Z,20.90
2023-05-16T06:31:09.925Z,20.72
2023-05-16T06:31:42.502Z,20.79
2023-05-16T06:32:15.065Z,20.89
2023-05-16T06:32:47.668Z,20.98
2023-05-16T06:33:20.104Z,21.13
2023-05-16T06:33:52.617Z,21.29
2023-05-16T06:34:25.188Z,21.27
2023-05-16T06:34:57.728Z,21.35
2023-05-16T06:35:30.302Z,21.29
2023-05-16T06:36:02.766Z,21.41
2023-05-16T06:36:35.299Z,21.64
2023-05-16T06:37:08.656Z,21.95
2023-05-16T06:37:42.734Z,22.25
2023-05-16T06:38:13.764Z,22.19
2023-05-16T06:38:46.309Z,22.29
2023-05-16T06:39:26.383Z,22.41
2023-05-16T06:39:58.853Z,22.52
2023-05-16T06:40:31.361Z,22.46
2023-05-16T06:41:03.885Z,22.72
2023-05-16T06:41:36.309Z,23.02
2023-05-16T06:42:08.827Z,23.34
2023-05-16T06:42:41.395Z,23.62
2023-05-16T06:43:13.903Z,23.97
2023-05-16T06:43:46.408Z,24.01
2023-05-16T06:44:18.911Z,24.13
2023-05-16T06:44:51.411Z,24.23
2023-05-16T06:45:23.865Z,24.38
2023-05-16T06:45:56.314Z,24.49
2023-05-16T06:46:28.841Z,24.53
2023-05-16T06:47:01.316Z,24.64
2023-05-16T06:47:33.748Z,24.82
2023-05-16T06:48:06.178Z,24.92
2023-05-16T06:48:38.685Z,25.19
2023-05-16T06:49:11.232Z,25.46
2023-05-16T06:49:43.740Z,25.65
2023-05-16T06:50:16.290Z,25.52
2023-05-16T06:50:48.763Z,25.39
2023-05-16T06:51:21.282Z,25.44
2023-05-16T06:51:53.812Z,25.68
2023-05-16T06:52:26.427Z,25.89
2023-05-16T06:52:58.934Z,26.08
2023-05-16T06:53:31.496Z,26.27
2023-05-16T06:54:11.222Z,26.11
2023-05-16T06:54:43.675Z,25.37
2023-05-16T06:55:16.127Z,24.90
2023-05-16T06:55:48.616Z,24.95
2023-05-16T06:56:21.078Z,25.09
2023-05-16T06:56:53.609Z,24.82
2023-05-16T06:57:26.094Z,24.35
2023-05-16T06:57:58.577Z,24.44
2023-05-16T06:58:31.043Z,24.75
2023-05-16T06:59:03.514Z,24.69
2023-05-16T06:59:36.065Z,25.02
2023-05-16T07:00:08.580Z,24.95
2023-05-16T07:00:41.085Z,24.42
2023-05-16T07:01:13.681Z,24.02
2023-05-16T07:01:46.406Z,24.27
2023-05-16T07:02:18.768Z,24.59
2023-05-16T07:02:51.152Z,24.91
2023-05-16T07:03:23.742Z,25.19
2023-05-16T07:03:56.171Z,25.52
2023-05-16T07:04:28.566Z,25.87
2023-05-16T07:05:01.032Z,26.12
2023-05-16T07:05:33.548Z,25.69
2023-05-16T07:06:06.086Z,25.89
2023-05-16T07:06:38.550Z,26.15
2023-05-16T07:07:11.038Z,26.28
2023-05-16T07:07:43.546Z,26.11
2023-05-16T07:08:16.059Z,25.87
2023-05-16T07:08:48.558Z,26.25
2023-05-16T07:09:21.053Z,26.65
2023-05-16T07:09:53.564Z,27.05
2023-05-16T07:10:26.082Z,27.43
2023-05-16T07:10:58.530Z,27.53